Jacques Jacob — ZDKG7 — position and weather

sailwx.info

Track history (hours):
 
Tides and Currents Weather Stations Pressure Air Temp Water Temp Dewpoint Dewpoint Depression Visibility Wind Speed Wind Dir Waves Ship Positions

Jacques Jacob

Last reported at 2015-Feb-26 14:12 UTC. Time now 2015-Feb-27 11:45 UTC.
Position N 29°35' W 089°48'.

Length 228 m; draft 10.4 m.

Type: Tanker. MMSI: 236612000.

Date/timePositionNaut miles runAvg speedWind from/ knotsBaromVisibWave heightAir tempDewpointWater temp
2015-Feb-26 14:12N 29°35' W 089°48'910.7
2015-Feb-26 13:23N 29°39' W 089°57'49 6.2
2015-Feb-26 05:33N 29°60' W 090°48'12 0.2
2015-Feb-24 05:05N 30°07' W 090°59'9 5.5
2015-Feb-24 03:30N 30°02' W 090°50'  
2015-Feb-21 20:30N 29°55' W 089°57'8 5.6
2015-Feb-21 19:08N 29°48' W 090°00'244 6.2
2015-Feb-20 03:30N 29°19' W 094°39'5 0.3
2015-Feb-19 06:10N 29°21' W 094°45'4 6.8
2015-Feb-19 05:33N 29°23' W 094°49'1010.4
2015-Feb-19 04:33N 29°32' W 094°54'1010.1
2015-Feb-19 03:33N 29°41' W 094°59'3 2.8
2015-Feb-19 02:33N 29°44' W 095°01'0 0.0
2015-Feb-19 01:33N 29°44' W 095°01'0 0.0
2015-Feb-19 00:33N 29°44' W 095°01'0 0.0
2015-Feb-18 23:33N 29°44' W 095°01'0 0.0
2015-Feb-18 22:33N 29°44' W 095°01'0 0.0
2015-Feb-18 21:14N 29°44' W 095°01'0 0.0
2015-Feb-18 20:32N 29°44' W 095°01'0 0.0
2015-Feb-18 19:32N 29°44' W 095°01'0 0.0
2015-Feb-18 18:32N 29°44' W 095°01'0 0.0
2015-Feb-18 17:26N 29°44' W 095°01'0 0.0
2015-Feb-18 16:32N 29°44' W 095°01'0 0.0
2015-Feb-18 15:32N 29°44' W 095°01'0 0.0
2015-Feb-18 14:32N 29°44' W 095°01'0 0.0
2015-Feb-18 13:32N 29°44' W 095°01'0 0.0
2015-Feb-18 12:32N 29°44' W 095°01'0 0.0
2015-Feb-18 11:32N 29°44' W 095°01'0 0.0
2015-Feb-18 10:32N 29°44' W 095°01'0 0.0
2015-Feb-18 09:32N 29°44' W 095°01'0 0.0
2015-Feb-18 08:32N 29°44' W 095°01'0 0.0
2015-Feb-18 07:32N 29°44' W 095°01'0 0.0
2015-Feb-18 06:32N 29°44' W 095°01'0 0.0
2015-Feb-18 05:32N 29°44' W 095°01'0 0.0
2015-Feb-18 04:32N 29°44' W 095°01'0 0.0
2015-Feb-18 03:32N 29°44' W 095°01'0 0.0
2015-Feb-18 02:32N 29°44' W 095°01'0 0.0
2015-Feb-18 01:32N 29°44' W 095°01'0 0.0
2015-Feb-18 00:26N 29°44' W 095°01'0 0.0
2015-Feb-17 23:32N 29°44' W 095°01'0 0.0
2015-Feb-17 22:32N 29°44' W 095°01'0 0.0
2015-Feb-17 21:20N 29°44' W 095°01'0 0.0
2015-Feb-17 20:32N 29°44' W 095°01'0 0.0
2015-Feb-17 19:32N 29°44' W 095°01'0 0.0
2015-Feb-17 17:32N 29°44' W 095°01'0 0.0
2015-Feb-17 16:32N 29°44' W 095°01'0 0.0
2015-Feb-17 15:32N 29°44' W 095°01'0 0.0
2015-Feb-17 14:32N 29°44' W 095°01'0 0.0
2015-Feb-17 13:26N 29°44' W 095°01'0 0.0
2015-Feb-17 12:32N 29°44' W 095°01'0 0.0
2015-Feb-17 11:31N 29°44' W 095°01'0 0.0
2015-Feb-17 10:31N 29°44' W 095°01'0 0.0
2015-Feb-17 09:31N 29°44' W 095°01'0 0.0
2015-Feb-17 08:31N 29°44' W 095°01'0 0.0
2015-Feb-17 07:31N 29°44' W 095°01'0 0.0
2015-Feb-17 06:31N 29°44' W 095°01'0 0.0
2015-Feb-17 05:31N 29°44' W 095°01'0 0.0
2015-Feb-17 04:31N 29°44' W 095°01'0 0.0
2015-Feb-17 03:31N 29°44' W 095°01'0 0.0
2015-Feb-17 02:31N 29°44' W 095°01'0 0.0
2015-Feb-17 01:25N 29°44' W 095°01'0 0.0
2015-Feb-17 00:25N 29°44' W 095°01'0 0.0
2015-Feb-16 23:31N 29°44' W 095°01'0 0.0
2015-Feb-16 22:31N 29°44' W 095°01'0 0.0
2015-Feb-16 21:31N 29°44' W 095°01'0 0.0
2015-Feb-16 20:25N 29°44' W 095°01'0 0.0
2015-Feb-16 19:25N 29°44' W 095°01'0 0.0
2015-Feb-16 18:31N 29°44' W 095°01'0 0.0
2015-Feb-16 17:31N 29°44' W 095°01'0 0.0
2015-Feb-16 16:31N 29°44' W 095°01'0 0.0
2015-Feb-16 15:31N 29°44' W 095°01'0 0.0
2015-Feb-16 14:31N 29°44' W 095°01'  
Track history (hours):
 
Tides and Currents Weather Stations Pressure Air Temp Water Temp Dewpoint Dewpoint Depression Visibility Wind Speed Wind Dir Waves Ship Positions

Jacques Jacob

Last reported at 2015-Feb-26 14:12 UTC. Time now 2015-Feb-27 11:45 UTC.
Position N 29°35' W 089°48'.

Length 228 m; draft 10.4 m.

Type: Tanker. MMSI: 236612000.

Date/timePositionNaut miles runAvg speedWind from/ knotsBaromVisibWave heightAir tempDewpointWater temp
2015-Feb-26 14:12N 29°35' W 089°48'910.7
2015-Feb-26 13:23N 29°39' W 089°57'49 6.2
2015-Feb-26 05:33N 29°60' W 090°48'12 0.2
2015-Feb-24 05:05N 30°07' W 090°59'9 5.5
2015-Feb-24 03:30N 30°02' W 090°50'  
2015-Feb-21 20:30N 29°55' W 089°57'8 5.6
2015-Feb-21 19:08N 29°48' W 090°00'244 6.2
2015-Feb-20 03:30N 29°19' W 094°39'5 0.3
2015-Feb-19 06:10N 29°21' W 094°45'4 6.8
2015-Feb-19 05:33N 29°23' W 094°49'1010.4
2015-Feb-19 04:33N 29°32' W 094°54'1010.1
2015-Feb-19 03:33N 29°41' W 094°59'3 2.8
2015-Feb-19 02:33N 29°44' W 095°01'0 0.0
2015-Feb-19 01:33N 29°44' W 095°01'0 0.0
2015-Feb-19 00:33N 29°44' W 095°01'0 0.0
2015-Feb-18 23:33N 29°44' W 095°01'0 0.0
2015-Feb-18 22:33N 29°44' W 095°01'0 0.0
2015-Feb-18 21:14N 29°44' W 095°01'0 0.0
2015-Feb-18 20:32N 29°44' W 095°01'0 0.0
2015-Feb-18 19:32N 29°44' W 095°01'0 0.0
2015-Feb-18 18:32N 29°44' W 095°01'0 0.0
2015-Feb-18 17:26N 29°44' W 095°01'0 0.0
2015-Feb-18 16:32N 29°44' W 095°01'0 0.0
2015-Feb-18 15:32N 29°44' W 095°01'0 0.0
2015-Feb-18 14:32N 29°44' W 095°01'0 0.0
2015-Feb-18 13:32N 29°44' W 095°01'0 0.0
2015-Feb-18 12:32N 29°44' W 095°01'0 0.0
2015-Feb-18 11:32N 29°44' W 095°01'0 0.0
2015-Feb-18 10:32N 29°44' W 095°01'0 0.0
2015-Feb-18 09:32N 29°44' W 095°01'0 0.0
2015-Feb-18 08:32N 29°44' W 095°01'0 0.0
2015-Feb-18 07:32N 29°44' W 095°01'0 0.0
2015-Feb-18 06:32N 29°44' W 095°01'0 0.0
2015-Feb-18 05:32N 29°44' W 095°01'0 0.0
2015-Feb-18 04:32N 29°44' W 095°01'0 0.0
2015-Feb-18 03:32N 29°44' W 095°01'0 0.0
2015-Feb-18 02:32N 29°44' W 095°01'0 0.0
2015-Feb-18 01:32N 29°44' W 095°01'0 0.0
2015-Feb-18 00:26N 29°44' W 095°01'0 0.0
2015-Feb-17 23:32N 29°44' W 095°01'0 0.0
2015-Feb-17 22:32N 29°44' W 095°01'0 0.0
2015-Feb-17 21:20N 29°44' W 095°01'0 0.0
2015-Feb-17 20:32N 29°44' W 095°01'0 0.0
2015-Feb-17 19:32N 29°44' W 095°01'0 0.0
2015-Feb-17 17:32N 29°44' W 095°01'0 0.0
2015-Feb-17 16:32N 29°44' W 095°01'0 0.0
2015-Feb-17 15:32N 29°44' W 095°01'0 0.0
2015-Feb-17 14:32N 29°44' W 095°01'0 0.0
2015-Feb-17 13:26N 29°44' W 095°01'0 0.0
2015-Feb-17 12:32N 29°44' W 095°01'0 0.0
2015-Feb-17 11:31N 29°44' W 095°01'0 0.0
2015-Feb-17 10:31N 29°44' W 095°01'0 0.0
2015-Feb-17 09:31N 29°44' W 095°01'0 0.0
2015-Feb-17 08:31N 29°44' W 095°01'0 0.0
2015-Feb-17 07:31N 29°44' W 095°01'0 0.0
2015-Feb-17 06:31N 29°44' W 095°01'0 0.0
2015-Feb-17 05:31N 29°44' W 095°01'0 0.0
2015-Feb-17 04:31N 29°44' W 095°01'0 0.0
2015-Feb-17 03:31N 29°44' W 095°01'0 0.0
2015-Feb-17 02:31N 29°44' W 095°01'0 0.0
2015-Feb-17 01:25N 29°44' W 095°01'0 0.0
2015-Feb-17 00:25N 29°44' W 095°01'0 0.0
2015-Feb-16 23:31N 29°44' W 095°01'0 0.0
2015-Feb-16 22:31N 29°44' W 095°01'0 0.0
2015-Feb-16 21:31N 29°44' W 095°01'0 0.0
2015-Feb-16 20:25N 29°44' W 095°01'0 0.0
2015-Feb-16 19:25N 29°44' W 095°01'0 0.0
2015-Feb-16 18:31N 29°44' W 095°01'0 0.0
2015-Feb-16 17:31N 29°44' W 095°01'0 0.0
2015-Feb-16 16:31N 29°44' W 095°01'0 0.0
2015-Feb-16 15:31N 29°44' W 095°01'0 0.0
2015-Feb-16 14:31N 29°44' W 095°01'  

Dump ship's entire track history